Time;durP1;ratioP1;P1;durP2;ratioP2;P2;SDS_P1;SDS_P2;PMS_P1;PMS_P2;Temp;Humidity;BMP_temperature;BMP_pressure;BME280_temperature;BME280_humidity;BME280_pressure;Samples;Min_cycle;Max_cycle;Signal;HPM_P1;HPM_P2
2021/12/18 00:01:25;;;;;;;11.05;6.43;;;;;;;7.15;100.00;104203.97;5044656;28;20075;-79
2021/12/18 00:03:50;;;;;;;12.80;6.10;;;;;;;7.22;100.00;104207.66;5041088;28;20029;-79
2021/12/18 00:06:17;;;;;;;11.98;6.40;;;;;;;7.17;100.00;104206.66;5037418;28;20351;-79
2021/12/18 00:08:43;;;;;;;10.23;5.82;;;;;;;7.14;100.00;104206.59;5036565;28;20032;-78
2021/12/18 00:11:09;;;;;;;10.07;5.88;;;;;;;7.13;100.00;104200.41;5036837;28;20378;-79
2021/12/18 00:13:34;;;;;;;10.32;5.32;;;;;;;7.12;100.00;104203.91;5038054;28;20469;-79
2021/12/18 00:16:00;;;;;;;10.52;5.13;;;;;;;7.10;100.00;104197.72;5036649;28;20044;-75
2021/12/18 00:18:26;;;;;;;9.10;5.18;;;;;;;7.09;100.00;104195.06;5036170;28;20029;-78
2021/12/18 00:20:51;;;;;;;9.43;5.30;;;;;;;7.08;100.00;104199.41;5035448;28;20033;-79
2021/12/18 00:23:17;;;;;;;9.15;5.00;;;;;;;7.11;100.00;104195.97;5035241;28;20057;-77
2021/12/18 00:25:43;;;;;;;11.75;5.80;;;;;;;7.10;100.00;104200.34;5034769;28;20043;-77
2021/12/18 00:28:09;;;;;;;11.02;5.95;;;;;;;7.10;100.00;104199.44;5035055;28;20072;-77
2021/12/18 00:30:35;;;;;;;11.38;5.85;;;;;;;7.10;100.00;104196.81;5034359;28;20030;-77
2021/12/18 00:33:03;;;;;;;12.25;6.57;;;;;;;7.11;100.00;104202.13;5035121;28;20049;-76
2021/12/18 00:35:29;;;;;;;11.20;6.07;;;;;;;7.12;100.00;104197.75;5035213;28;20389;-77
2021/12/18 00:37:54;;;;;;;12.82;6.30;;;;;;;7.15;100.00;104193.44;5034434;28;20037;-76
2021/12/18 00:40:24;;;;;;;11.13;5.85;;;;;;;7.16;100.00;104192.59;5034761;28;20033;-77
2021/12/18 00:45:21;;;;;;;14.20;6.60;;;;;;;7.14;100.00;104173.19;5035501;28;20539;-78
2021/12/18 00:47:47;;;;;;;12.90;5.93;;;;;;;7.13;100.00;104187.22;5035948;28;20045;-77
2021/12/18 00:50:20;;;;;;;10.90;5.95;;;;;;;7.12;100.00;104174.91;5044493;28;20077;-78
2021/12/18 00:52:47;;;;;;;14.55;6.03;;;;;;;7.10;100.00;104171.38;5048875;28;20030;-77
2021/12/18 00:55:14;;;;;;;11.23;5.85;;;;;;;7.14;100.00;104170.56;5048101;28;20024;-79
2021/12/18 00:57:40;;;;;;;11.75;5.85;;;;;;;7.14;100.00;104175.84;5048855;28;20029;-80
2021/12/18 01:00:08;;;;;;;11.48;5.75;;;;;;;7.13;100.00;104181.97;5046506;28;20850;-79
2021/12/18 01:02:34;;;;;;;12.43;5.80;;;;;;;7.08;100.00;104178.31;5040671;28;20095;-79
2021/12/18 01:04:59;;;;;;;10.88;5.47;;;;;;;7.10;100.00;104176.63;5047584;28;20025;-80
2021/12/18 01:07:25;;;;;;;10.43;5.00;;;;;;;7.15;100.00;104163.56;5046652;28;20652;-78
2021/12/18 01:10:05;;;;;;;8.18;4.25;;;;;;;7.12;100.00;104168.75;5043518;28;20059;-79
2021/12/18 01:12:38;;;;;;;9.63;4.15;;;;;;;7.15;100.00;104180.25;5040621;28;20425;-79
2021/12/18 01:15:18;;;;;;;8.73;4.07;;;;;;;7.14;100.00;104167.06;5038851;28;20111;-79
2021/12/18 01:23:13;;;;;;;6.70;3.90;;;;;;;7.11;100.00;104173.16;5043582;28;20163;-79
2021/12/18 01:25:38;;;;;;;7.35;3.72;;;;;;;7.10;100.00;104175.72;5040854;28;20481;-77
2021/12/18 01:28:07;;;;;;;9.15;3.50;;;;;;;7.11;100.00;104183.69;5040160;28;20033;-80
2021/12/18 01:30:33;;;;;;;6.70;3.72;;;;;;;7.10;100.00;104178.34;5036656;28;20033;-79
2021/12/18 01:32:58;;;;;;;7.13;3.70;;;;;;;7.13;100.00;104173.19;5037092;28;20124;-80
2021/12/18 01:35:24;;;;;;;7.50;3.85;;;;;;;7.15;100.00;104171.47;5037846;28;20060;-77
2021/12/18 01:37:50;;;;;;;6.20;3.58;;;;;;;7.16;100.00;104178.50;5037061;28;20025;-80
2021/12/18 01:40:17;;;;;;;7.50;3.80;;;;;;;7.15;100.00;104187.28;5037109;28;20022;-77
2021/12/18 01:53:20;;;;;;;9.95;3.90;;;;;;;7.12;100.00;104192.47;5030998;28;20095;-78
2021/12/18 01:55:48;;;;;;;7.70;3.72;;;;;;;7.10;100.00;104187.16;5037988;28;20026;-79
2021/12/18 01:58:14;;;;;;;8.40;3.60;;;;;;;7.14;100.00;104183.75;5038765;28;20105;-79
2021/12/18 02:00:42;;;;;;;9.35;4.38;;;;;;;7.15;100.00;104189.94;5038199;28;20049;-79
2021/12/18 02:03:08;;;;;;;8.25;3.53;;;;;;;7.17;100.00;104185.56;5037848;28;20139;-80
2021/12/18 02:05:34;;;;;;;8.63;3.65;;;;;;;7.17;100.00;104181.19;5037684;28;20063;-80
2021/12/18 02:07:59;;;;;;;8.88;4.65;;;;;;;7.16;100.00;104181.16;5037468;28;20025;-80
2021/12/18 02:10:29;;;;;;;8.75;3.97;;;;;;;7.14;100.00;104186.38;5037728;28;20452;-79
2021/12/18 02:13:03;;;;;;;9.38;4.20;;;;;;;7.12;100.00;104181.94;5037946;28;20026;-79
2021/12/18 02:21:06;;;;;;;10.38;4.35;;;;;;;7.09;100.00;104166.06;5037015;28;20095;-78
2021/12/18 02:23:33;;;;;;;8.27;4.57;;;;;;;7.07;100.00;104163.38;5036621;28;20491;-80
2021/12/18 02:25:59;;;;;;;9.45;4.45;;;;;;;7.07;100.00;104165.13;5037415;28;20029;-79
2021/12/18 02:28:27;;;;;;;9.85;4.05;;;;;;;7.10;100.00;104163.47;5036993;28;20032;-79
2021/12/18 02:30:55;;;;;;;8.30;3.45;;;;;;;7.10;100.00;104157.28;5036310;28;20025;-79
2021/12/18 02:33:21;;;;;;;7.65;3.55;;;;;;;7.17;100.00;104152.22;5036947;28;20171;-79
2021/12/18 02:35:49;;;;;;;7.40;3.50;;;;;;;7.12;100.00;104152.94;5035757;28;20030;-79
2021/12/18 02:38:24;;;;;;;7.60;3.53;;;;;;;7.12;100.00;104161.72;5036932;28;20044;-79
2021/12/18 02:41:06;;;;;;;6.82;3.08;;;;;;;7.11;100.00;104152.06;5036360;28;20079;-80
2021/12/18 02:43:38;;;;;;;8.93;4.10;;;;;;;7.07;100.00;104154.56;5034736;28;20124;-79
2021/12/18 02:46:09;;;;;;;8.60;4.10;;;;;;;7.10;100.00;104159.91;5034171;28;20029;-80
2021/12/18 02:48:37;;;;;;;9.43;4.40;;;;;;;7.07;100.00;104157.22;5035691;28;20029;-79
2021/12/18 02:51:04;;;;;;;9.52;4.45;;;;;;;7.03;100.00;104154.53;5036557;28;20764;-74
2021/12/18 02:53:30;;;;;;;9.88;4.35;;;;;;;7.02;100.00;104150.09;5036325;28;20033;-80
2021/12/18 02:55:57;;;;;;;9.90;4.10;;;;;;;7.05;100.00;104142.25;5035240;28;20040;-80
2021/12/18 02:58:24;;;;;;;10.88;4.35;;;;;;;7.08;100.00;104141.44;5035097;28;20033;-79
2021/12/18 03:00:50;;;;;;;10.85;4.03;;;;;;;7.08;100.00;104140.56;5034702;28;20025;-80
2021/12/18 03:03:16;;;;;;;9.95;4.05;;;;;;;7.11;100.00;104145.88;5034317;28;20025;-77
2021/12/18 03:05:53;;;;;;;9.43;4.45;;;;;;;7.11;100.00;104141.53;5034869;28;20033;-80
2021/12/18 03:08:33;;;;;;;10.20;4.53;;;;;;;7.07;100.00;104139.66;5034848;28;20033;-78
2021/12/18 03:20:07;;;;;;;8.35;3.83;;;;;;;6.98;100.00;104145.63;5032851;28;20072;-80
2021/12/18 03:24:33;;;;;;;10.45;4.55;;;;;;;6.92;100.00;104152.47;5033606;28;20444;-81
2021/12/18 03:26:58;;;;;;;10.20;4.45;;;;;;;6.93;100.00;104149.91;5034230;28;20021;-79
2021/12/18 03:29:24;;;;;;;9.15;4.47;;;;;;;6.91;100.00;104155.97;5035801;28;20033;-80
2021/12/18 03:31:50;;;;;;;9.75;4.40;;;;;;;6.96;100.00;104138.53;5037873;28;20053;-80
2021/12/18 03:34:15;;;;;;;10.45;4.32;;;;;;;6.93;100.00;104154.25;5037176;28;20547;-80
2021/12/18 03:36:40;;;;;;;9.35;4.10;;;;;;;6.94;100.00;104137.59;5037707;28;20060;-78
2021/12/18 03:39:06;;;;;;;8.45;4.10;;;;;;;6.95;100.00;104132.34;5043510;28;20081;-79
2021/12/18 03:41:32;;;;;;;8.93;3.97;;;;;;;6.91;100.00;104127.88;5044249;28;20028;-81
2021/12/18 03:43:58;;;;;;;8.32;4.13;;;;;;;6.88;100.00;104141.00;5044473;28;20021;-80
2021/12/18 03:46:23;;;;;;;10.05;4.68;;;;;;;6.86;100.00;104127.75;5044346;28;20025;-79
2021/12/18 03:48:49;;;;;;;8.88;4.07;;;;;;;6.88;100.00;104130.44;5045695;28;20024;-79
2021/12/18 03:51:14;;;;;;;9.93;4.40;;;;;;;6.89;100.00;104126.94;5045364;28;20458;-79
2021/12/18 03:53:39;;;;;;;10.32;4.63;;;;;;;6.87;100.00;104128.66;5045347;28;20029;-77
2021/12/18 03:56:05;;;;;;;10.55;4.68;;;;;;;6.88;100.00;104125.19;5044220;28;20436;-78
2021/12/18 03:58:30;;;;;;;11.20;4.25;;;;;;;6.85;100.00;104120.72;5044359;28;20468;-80
2021/12/18 04:00:56;;;;;;;9.57;3.92;;;;;;;6.79;100.00;104131.13;5045180;28;20036;-77
2021/12/18 04:03:22;;;;;;;9.10;3.55;;;;;;;6.83;100.00;104125.06;5044053;28;20029;-80
2021/12/18 04:05:48;;;;;;;8.40;3.67;;;;;;;6.72;100.00;104139.72;5043619;28;20140;-77
2021/12/18 04:08:13;;;;;;;8.50;3.70;;;;;;;6.70;100.00;104136.13;5043457;28;20025;-79
2021/12/18 04:10:40;;;;;;;8.93;3.90;;;;;;;6.67;100.00;104130.81;5043446;28;20036;-79
2021/12/18 04:13:07;;;;;;;9.13;3.97;;;;;;;6.66;100.00;104129.94;5049526;28;20025;-77
2021/12/18 04:15:33;;;;;;;9.07;4.32;;;;;;;6.67;100.00;104128.19;5050811;28;20025;-78
2021/12/18 04:17:59;;;;;;;9.07;4.32;;;;;;;6.61;100.00;104133.28;5042588;28;20025;-79
2021/12/18 04:20:24;;;;;;;10.05;4.47;;;;;;;6.61;100.00;104133.28;5043634;28;20026;-80
2021/12/18 04:22:50;;;;;;;10.82;5.15;;;;;;;6.60;100.00;104139.41;5043866;28;20029;-80
2021/12/18 04:25:15;;;;;;;8.77;4.20;;;;;;;6.67;100.00;104144.84;5042987;28;20033;-79
2021/12/18 04:27:41;;;;;;;11.82;4.55;;;;;;;6.67;100.00;104133.44;5036259;28;20026;-80
2021/12/18 04:30:07;;;;;;;14.88;4.68;;;;;;;6.65;100.00;104138.69;5048202;28;20040;-79
2021/12/18 04:32:32;;;;;;;9.45;4.60;;;;;;;6.61;100.00;104139.47;5051381;28;20030;-76
2021/12/18 04:34:57;;;;;;;10.73;4.95;;;;;;;6.60;100.00;104150.84;5053907;28;20049;-78
2021/12/18 04:37:23;;;;;;;10.07;5.32;;;;;;;6.54;100.00;104148.03;5055666;28;20512;-79
2021/12/18 04:39:49;;;;;;;9.50;4.93;;;;;;;6.55;100.00;104141.94;5054241;28;20033;-78
2021/12/18 04:42:14;;;;;;;10.50;5.15;;;;;;;6.58;100.00;104143.75;5055262;28;20030;-74
2021/12/18 04:44:40;;;;;;;14.45;6.28;;;;;;;6.52;100.00;104140.13;5055349;28;20079;-78
2021/12/18 04:47:05;;;;;;;15.82;6.63;;;;;;;6.47;100.00;104141.75;5054955;28;20037;-77
2021/12/18 04:49:30;;;;;;;16.13;6.10;;;;;;;6.47;100.00;104149.66;5054219;28;20042;-78
2021/12/18 04:51:56;;;;;;;13.85;5.65;;;;;;;6.42;100.00;104148.63;5055879;28;20025;-78
2021/12/18 04:54:21;;;;;;;12.98;5.65;;;;;;;6.32;100.00;104150.13;5055631;28;20026;-79
2021/12/18 04:56:46;;;;;;;14.63;5.75;;;;;;;6.26;100.00;104144.69;5057852;28;20086;-78
2021/12/18 04:59:12;;;;;;;27.08;6.03;;;;;;;6.21;100.00;104151.56;5055926;28;20014;-80
2021/12/18 05:01:39;;;;;;;15.85;5.88;;;;;;;6.23;100.00;104153.41;5054013;28;20036;-78
2021/12/18 05:04:09;;;;;;;14.98;5.53;;;;;;;6.23;100.00;104153.41;5054198;28;20044;-75
2021/12/18 05:06:36;;;;;;;15.00;5.38;;;;;;;6.30;100.00;104149.19;5052723;28;20055;-80
2021/12/18 05:09:03;;;;;;;14.70;5.78;;;;;;;6.32;100.00;104157.16;5048946;28;20381;-80
2021/12/18 05:11:28;;;;;;;15.65;5.47;;;;;;;6.26;100.00;104165.75;5033667;28;20021;-79
2021/12/18 05:13:53;;;;;;;21.48;5.90;;;;;;;6.27;100.00;104166.66;5034511;28;20025;-79
2021/12/18 05:16:19;;;;;;;22.33;6.18;;;;;;;6.31;100.00;104158.00;5034513;28;20045;-79
2021/12/18 05:18:44;;;;;;;19.45;5.72;;;;;;;6.28;100.00;104165.78;5033567;28;20401;-80
2021/12/18 05:21:10;;;;;;;16.45;5.47;;;;;;;6.27;100.00;104162.28;5034107;28;20469;-78
2021/12/18 05:23:35;;;;;;;29.52;6.28;;;;;;;6.29;100.00;104159.69;5027681;28;20033;-76
2021/12/18 05:26:01;;;;;;;18.08;5.55;;;;;;;6.29;100.00;104160.59;5034094;28;20026;-78
2021/12/18 05:28:26;;;;;;;18.50;5.45;;;;;;;6.30;100.00;104175.50;5034204;28;20516;-78
2021/12/18 05:30:51;;;;;;;19.65;5.72;;;;;;;6.32;100.00;104163.28;5027487;28;20079;-78
2021/12/18 05:33:17;;;;;;;16.15;5.68;;;;;;;6.31;100.00;104163.25;5027118;28;20038;-78
2021/12/18 05:35:42;;;;;;;17.95;5.00;;;;;;;6.36;100.00;104159.00;5022366;28;20398;-78
2021/12/18 05:38:07;;;;;;;17.25;5.82;;;;;;;6.31;100.00;104161.50;5033556;28;20042;-78
2021/12/18 05:40:35;;;;;;;22.17;6.32;;;;;;;6.34;100.00;104158.06;5033396;28;20017;-79
2021/12/18 05:43:00;;;;;;;24.70;6.85;;;;;;;6.36;100.00;104159.88;5033601;28;20026;-78
2021/12/18 05:45:26;;;;;;;21.65;6.25;;;;;;;6.32;100.00;104159.78;5034066;28;20036;-78
2021/12/18 05:47:52;;;;;;;19.67;5.97;;;;;;;6.29;100.00;104160.59;5033713;28;20021;-78
2021/12/18 05:50:20;;;;;;;23.50;6.28;;;;;;;6.32;100.00;104165.91;5029117;28;20115;-77
2021/12/18 05:52:47;;;;;;;25.90;6.22;;;;;;;6.35;100.00;104168.63;5025095;28;20018;-78
2021/12/18 05:55:14;;;;;;;18.88;5.70;;;;;;;6.37;100.00;104158.16;5021214;28;20026;-78
2021/12/18 05:57:40;;;;;;;26.33;6.85;;;;;;;6.32;100.00;104155.38;5014104;28;20033;-78
2021/12/18 06:00:09;;;;;;;23.83;6.82;;;;;;;6.29;100.00;104157.94;5016384;28;20441;-77
2021/12/18 06:02:35;;;;;;;18.20;5.30;;;;;;;6.27;100.00;104164.91;5029834;28;20086;-78
2021/12/18 06:05:00;;;;;;;18.08;5.30;;;;;;;6.25;100.00;104161.31;5032821;28;20112;-79
2021/12/18 06:07:58;;;;;;;19.67;5.60;;;;;;;6.25;100.00;104153.44;5033648;28;20107;-77
2021/12/18 06:10:17;;;;;;;22.93;6.10;;;;;;;6.20;100.00;104150.69;5030857;28;20124;-77
2021/12/18 06:12:42;;;;;;;20.80;5.13;;;;;;;6.25;100.00;104148.16;5033040;28;20184;-78
2021/12/18 06:15:08;;;;;;;19.48;5.78;;;;;;;6.23;100.00;104144.63;5033124;28;20068;-79
2021/12/18 06:17:33;;;;;;;22.30;5.20;;;;;;;6.25;100.00;104148.16;5029945;28;20064;-79
2021/12/18 06:19:58;;;;;;;18.75;5.28;;;;;;;6.23;100.00;104145.50;5029643;28;20487;-77
2021/12/18 06:22:24;;;;;;;39.33;5.78;;;;;;;6.21;100.00;104147.22;5022219;28;20037;-76
2021/12/18 06:24:49;;;;;;;18.27;5.70;;;;;;;6.25;100.00;104140.28;5024857;28;20030;-77
2021/12/18 06:27:14;;;;;;;30.95;5.80;;;;;;;6.25;100.00;104152.56;5033152;28;20458;-76
2021/12/18 06:29:41;;;;;;;20.13;5.30;;;;;;;6.27;100.00;104143.84;5033140;28;20029;-76
2021/12/18 06:32:07;;;;;;;14.88;4.15;;;;;;;6.24;100.00;104149.03;5033384;28;20030;-77
2021/12/18 06:34:33;;;;;;;24.45;4.57;;;;;;;6.11;100.00;104150.44;5032693;28;20133;-76
2021/12/18 06:36:58;;;;;;;17.58;4.90;;;;;;;6.07;100.00;104145.94;5032386;28;20036;-76
2021/12/18 06:39:23;;;;;;;18.40;4.82;;;;;;;6.11;100.00;104146.91;5032589;28;20534;-77
2021/12/18 06:41:49;;;;;;;16.42;4.57;;;;;;;6.16;100.00;104146.19;5033199;28;20029;-77
2021/12/18 06:44:14;;;;;;;18.23;4.65;;;;;;;6.13;100.00;104151.38;5032944;28;20021;-76
2021/12/18 06:46:40;;;;;;;23.70;4.72;;;;;;;6.17;100.00;104152.34;5032420;28;20029;-74
2021/12/18 06:49:06;;;;;;;19.95;4.97;;;;;;;6.11;100.00;104149.53;5033016;28;20525;-76
2021/12/18 06:51:31;;;;;;;23.33;4.43;;;;;;;6.11;100.00;104154.81;5029198;28;20037;-74
2021/12/18 06:53:57;;;;;;;16.23;4.15;;;;;;;6.11;100.00;104146.91;5030565;28;20021;-73
2021/12/18 06:56:22;;;;;;;17.50;4.38;;;;;;;6.13;100.00;104145.22;5032084;28;20113;-76
2021/12/18 06:58:47;;;;;;;14.25;4.30;;;;;;;6.10;100.00;104151.31;5032520;28;20059;-76
2021/12/18 07:01:13;;;;;;;25.42;4.03;;;;;;;6.11;100.00;104152.19;5032801;28;20421;-78
2021/12/18 07:03:38;;;;;;;27.90;4.85;;;;;;;6.03;100.00;104160.75;5030245;28;20033;-73
2021/12/18 07:06:04;;;;;;;20.73;4.13;;;;;;;6.00;100.00;104154.53;5031204;28;20331;-74
2021/12/18 07:08:29;;;;;;;18.13;4.40;;;;;;;6.01;100.00;104151.03;5032245;28;20032;-77
2021/12/18 07:10:54;;;;;;;22.08;5.13;;;;;;;6.03;100.00;104154.59;5032214;28;20047;-76
2021/12/18 07:13:20;;;;;;;18.55;4.57;;;;;;;6.02;100.00;104156.34;5032924;28;20104;-76
2021/12/18 07:15:45;;;;;;;14.93;3.75;;;;;;;6.01;100.00;104162.47;5032247;28;20473;-76
2021/12/18 07:18:10;;;;;;;19.55;3.83;;;;;;;5.99;100.00;104158.00;5032152;28;20064;-76
2021/12/18 07:20:36;;;;;;;16.77;3.90;;;;;;;5.97;100.00;104151.75;5031364;28;20033;-77
2021/12/18 07:23:01;;;;;;;14.45;3.28;;;;;;;5.86;100.00;104157.63;5032644;28;20034;-77
2021/12/18 07:25:28;;;;;;;23.60;4.45;;;;;;;5.87;100.00;104155.88;5032415;28;20017;-75
2021/12/18 07:27:54;;;;;;;8.50;2.47;;;;;;;5.85;100.00;104153.19;5030940;28;20041;-76
2021/12/18 07:30:19;;;;;;;13.65;2.40;;;;;;;5.83;100.00;104154.91;5032209;28;20141;-76
2021/12/18 07:32:51;;;;;;;10.63;2.90;;;;;;;5.81;100.00;104156.59;5032623;28;20034;-76
2021/12/18 07:35:17;;;;;;;13.60;2.75;;;;;;;5.79;100.00;104162.66;5031506;28;20092;-73
2021/12/18 07:37:42;;;;;;;9.13;2.75;;;;;;;5.70;100.00;104165.91;5024402;28;20025;-75
2021/12/18 07:40:09;;;;;;;11.82;2.63;;;;;;;5.73;100.00;104163.38;5030695;28;20801;-74
2021/12/18 07:42:34;;;;;;;9.38;2.75;;;;;;;5.71;100.00;104154.56;5031409;28;20025;-75
2021/12/18 07:45:01;;;;;;;12.73;3.08;;;;;;;5.72;100.00;104158.97;5032190;28;20034;-77
2021/12/18 07:47:26;;;;;;;11.98;3.20;;;;;;;5.67;100.00;104158.81;5028434;28;20022;-78
2021/12/18 07:49:52;;;;;;;14.23;2.92;;;;;;;5.72;100.00;104156.34;5021093;28;20514;-75
2021/12/18 07:52:17;;;;;;;11.27;2.90;;;;;;;5.73;100.00;104164.25;5012670;28;20049;-76
2021/12/18 07:54:43;;;;;;;10.65;3.40;;;;;;;5.76;100.00;104165.22;5024576;28;20083;-77
2021/12/18 07:57:08;;;;;;;10.00;2.80;;;;;;;5.75;100.00;104166.94;5032007;28;20026;-76
2021/12/18 07:59:34;;;;;;;12.15;3.38;;;;;;;5.70;100.00;104160.66;5032193;28;20113;-77
2021/12/18 08:02:00;;;;;;;10.52;3.03;;;;;;;5.67;100.00;104157.94;5032392;28;20037;-77
2021/12/18 08:04:26;;;;;;;10.43;3.00;;;;;;;5.70;100.00;104158.03;5030919;28;20104;-77
2021/12/18 08:06:52;;;;;;;12.73;3.35;;;;;;;5.71;100.00;104152.78;5032154;28;20053;-76
2021/12/18 08:09:18;;;;;;;11.15;2.88;;;;;;;5.70;100.00;104163.28;5032238;28;20453;-74
2021/12/18 08:11:43;;;;;;;16.35;3.45;;;;;;;5.70;100.00;104163.28;5031214;28;20508;-75
2021/12/18 08:14:08;;;;;;;13.13;3.15;;;;;;;5.70;100.00;104160.66;5031559;28;20124;-74
2021/12/18 08:16:34;;;;;;;10.98;3.17;;;;;;;5.67;100.00;104165.84;5035901;28;20029;-78
2021/12/18 08:18:59;;;;;;;22.23;3.85;;;;;;;5.69;100.00;104159.78;5035289;28;20036;-79
2021/12/18 08:21:24;;;;;;;15.38;3.92;;;;;;;5.64;100.00;104164.00;5035064;28;20053;-77
2021/12/18 08:23:50;;;;;;;12.50;3.03;;;;;;;5.71;100.00;104172.97;5033604;28;20480;-77
2021/12/18 08:26:15;;;;;;;14.25;3.95;;;;;;;5.74;100.00;104173.03;5027741;28;20018;-77
2021/12/18 08:28:40;;;;;;;23.45;5.03;;;;;;;5.67;100.00;104171.09;5034958;28;20037;-76
2021/12/18 08:31:06;;;;;;;15.45;4.60;;;;;;;5.65;100.00;104178.94;5035408;28;20111;-76
2021/12/18 08:33:31;;;;;;;18.42;4.88;;;;;;;5.64;100.00;104181.50;5034996;28;20416;-76
2021/12/18 08:35:56;;;;;;;21.08;4.68;;;;;;;5.67;100.00;104178.97;5035541;28;20419;-75
2021/12/18 08:38:22;;;;;;;17.20;4.35;;;;;;;5.72;100.00;104178.25;5035142;28;20466;-76
2021/12/18 08:40:49;;;;;;;19.30;4.53;;;;;;;5.72;100.00;104178.25;5035314;28;20033;-75
2021/12/18 08:43:14;;;;;;;13.68;3.78;;;;;;;5.66;100.00;104185.06;5037872;28;20037;-76
2021/12/18 08:45:39;;;;;;;11.18;3.55;;;;;;;5.70;100.00;104185.22;5035051;28;20018;-75
2021/12/18 08:48:05;;;;;;;10.40;3.50;;;;;;;5.66;100.00;104178.06;5034758;28;20376;-76
2021/12/18 08:50:30;;;;;;;24.52;4.10;;;;;;;5.60;100.00;104180.53;5035014;28;20032;-77
2021/12/18 08:52:56;;;;;;;21.30;4.07;;;;;;;5.57;100.00;104173.41;5034997;28;20036;-76
2021/12/18 08:55:22;;;;;;;19.98;4.45;;;;;;;5.56;100.00;104174.28;5035069;28;20033;-77
2021/12/18 08:57:50;;;;;;;16.90;4.10;;;;;;;5.57;100.00;104177.81;5035966;28;20110;-76
2021/12/18 09:00:18;;;;;;;16.50;4.40;;;;;;;5.61;100.00;104178.78;5037434;28;20087;-75
2021/12/18 09:02:47;;;;;;;17.65;4.65;;;;;;;5.70;100.00;104179.06;5036081;28;20445;-78
2021/12/18 09:05:12;;;;;;;12.75;3.78;;;;;;;5.78;100.00;104172.31;5035042;28;20032;-77
2021/12/18 09:07:38;;;;;;;14.55;3.75;;;;;;;5.80;100.00;104177.59;5034614;28;20025;-78
2021/12/18 09:10:05;;;;;;;12.77;4.00;;;;;;;5.80;100.00;104170.59;5034262;28;20025;-76
2021/12/18 09:12:31;;;;;;;18.95;4.85;;;;;;;5.82;100.00;104173.25;5042656;28;20428;-78
2021/12/18 09:14:56;;;;;;;12.52;4.18;;;;;;;5.82;100.00;104175.88;5038099;28;20064;-78
2021/12/18 09:17:22;;;;;;;14.50;4.30;;;;;;;5.81;100.00;104175.00;5035256;28;20026;-77
2021/12/18 09:19:47;;;;;;;12.43;4.30;;;;;;;5.78;100.00;104182.81;5031489;28;20033;-78
2021/12/18 09:22:13;;;;;;;13.45;3.90;;;;;;;5.81;100.00;104176.75;5028164;28;20021;-78
2021/12/18 09:24:38;;;;;;;17.20;3.50;;;;;;;5.82;100.00;104168.91;5029144;28;20101;-78
2021/12/18 09:27:05;;;;;;;15.68;3.28;;;;;;;5.79;100.00;104175.81;5034777;28;20473;-78
2021/12/18 09:29:31;;;;;;;12.55;3.70;;;;;;;5.88;100.00;104174.34;5028344;28;20109;-77
2021/12/18 09:31:56;;;;;;;11.77;3.60;;;;;;;6.00;100.00;104171.19;5036529;28;20190;-77
2021/12/18 09:34:21;;;;;;;16.45;5.85;;;;;;;6.10;100.00;104174.97;5044861;28;20036;-75
2021/12/18 09:36:47;;;;;;;14.25;3.97;;;;;;;6.12;100.00;104168.00;5043001;28;20029;-77
2021/12/18 09:39:14;;;;;;;9.43;3.13;;;;;;;6.10;100.00;104171.44;5037935;28;20571;-76
2021/12/18 09:41:40;;;;;;;8.55;3.30;;;;;;;6.14;100.00;104175.94;5033098;28;20486;-76
2021/12/18 09:44:06;;;;;;;9.48;3.33;;;;;;;6.09;100.00;104167.94;5027447;28;20106;-75
2021/12/18 09:46:32;;;;;;;11.55;3.30;;;;;;;6.07;100.00;104167.91;5029997;28;20104;-79
2021/12/18 09:48:57;;;;;;;12.15;3.58;;;;;;;6.10;100.00;104169.72;5033685;28;20025;-71
2021/12/18 09:51:27;;;;;;;13.50;3.45;;;;;;;6.17;100.00;104161.13;5024529;28;20356;-76
2021/12/18 09:53:54;;;;;;;12.35;3.92;;;;;;;6.12;100.00;104165.38;5029183;28;20026;-77
2021/12/18 09:56:20;;;;;;;10.45;3.30;;;;;;;6.05;100.00;104159.06;5031733;28;20534;-75
2021/12/18 09:58:47;;;;;;;9.23;2.85;;;;;;;6.10;100.00;104159.19;5045906;28;20029;-75
2021/12/18 10:01:12;;;;;;;14.25;3.20;;;;;;;6.18;100.00;104162.91;5040730;28;20392;-76
2021/12/18 10:03:58;;;;;;;5.70;2.65;;;;;;;6.18;100.00;104155.03;5053436;28;20025;-77
2021/12/18 10:06:44;;;;;;;16.33;3.20;;;;;;;6.17;100.00;104155.88;5044452;28;20029;-76
2021/12/18 10:09:28;;;;;;;6.35;2.58;;;;;;;6.16;100.00;104150.56;5045101;28;20021;-76
2021/12/18 10:11:56;;;;;;;8.23;2.53;;;;;;;6.19;100.00;104158.53;5042754;28;20083;-76
2021/12/18 10:14:39;;;;;;;12.90;2.67;;;;;;;6.19;100.00;104148.91;5032143;28;20410;-78
2021/12/18 10:17:27;;;;;;;6.88;2.65;;;;;;;6.15;100.00;104154.94;5034724;28;20081;-76
2021/12/18 10:20:13;;;;;;;7.90;3.15;;;;;;;6.21;100.00;104154.22;5017324;28;20045;-78
2021/12/18 10:22:44;;;;;;;10.32;2.83;;;;;;;6.22;100.00;104156.00;5035566;28;20087;-77
2021/12/18 10:25:11;;;;;;;7.53;2.47;;;;;;;6.14;100.00;104158.41;5033125;28;20044;-77
2021/12/18 10:27:38;;;;;;;9.18;2.47;;;;;;;6.18;100.00;104159.41;5033189;28;20025;-74
2021/12/18 10:30:20;;;;;;;11.10;2.60;;;;;;;6.04;100.00;104169.53;5032763;28;20025;-76
2021/12/18 10:32:58;;;;;;;;;;;;;;;6.01;100.00;104154.56;5033484;28;20057;-78
2021/12/18 10:35:41;;;;;;;20.23;3.05;;;;;;;6.02;100.00;104158.06;5032624;28;19924;-78
2021/12/18 10:38:06;;;;;;;;;;;;;;;6.03;100.00;104151.97;5032958;28;20061;-78
2021/12/18 10:40:51;;;;;;;12.20;2.80;;;;;;;5.86;100.00;104157.63;5033108;28;19959;-81
2021/12/18 10:43:17;;;;;;;6.28;2.75;;;;;;;5.91;100.00;104160.38;5032220;28;20050;-81
2021/12/18 10:45:42;;;;;;;7.80;3.05;;;;;;;5.91;100.00;104149.88;5032898;28;20120;-77
2021/12/18 10:48:13;;;;;;;7.65;2.92;;;;;;;5.92;100.00;104154.28;5033052;28;20040;-82
2021/12/18 10:50:51;;;;;;;15.95;3.33;;;;;;;5.89;100.00;104162.06;5032399;28;20033;-75
2021/12/18 10:53:22;;;;;;;7.22;3.13;;;;;;;5.86;100.00;104152.34;5029101;28;20546;-79
2021/12/18 10:55:55;;;;;;;10.00;3.20;;;;;;;5.78;100.00;104151.25;5033080;28;20040;-79
2021/12/18 10:58:39;;;;;;;15.13;3.67;;;;;;;5.73;100.00;104159.00;5032720;28;20037;-78
2021/12/18 11:01:14;;;;;;;8.15;3.35;;;;;;;5.77;100.00;104160.00;5031814;28;20530;-77
2021/12/18 11:03:48;;;;;;;21.48;3.53;;;;;;;5.71;100.00;104155.44;5046083;28;20477;-77
2021/12/18 11:06:18;;;;;;;8.20;3.45;;;;;;;5.77;100.00;104149.47;5040573;28;20025;-78
2021/12/18 11:09:07;;;;;;;11.68;3.45;;;;;;;5.93;100.00;104157.78;5032741;28;20032;-79
2021/12/18 11:14:34;;;;;;;7.70;3.40;;;;;;;6.14;100.00;104154.88;5025333;28;20040;-78
2021/12/18 11:17:03;;;;;;;18.30;9.57;;;;;;;6.21;100.00;104136.69;5030048;28;20063;-79
2021/12/18 11:19:30;;;;;;;11.18;4.30;;;;;;;6.22;100.00;104134.94;5013069;28;20038;-79
2021/12/18 11:22:03;;;;;;;9.23;4.28;;;;;;;6.23;100.00;104147.25;5029195;28;20123;-76
2021/12/18 11:24:42;;;;;;;8.55;4.43;;;;;;;6.25;100.00;104147.28;5032405;28;20394;-78
2021/12/18 11:27:14;;;;;;;12.27;3.38;;;;;;;6.22;100.00;104142.84;5032212;28;20037;-79
2021/12/18 11:30:06;;;;;;;24.23;4.47;;;;;;;6.24;100.00;104135.88;5032032;28;20014;-73
2021/12/18 11:32:40;;;;;;;8.88;3.80;;;;;;;6.29;100.00;104139.53;5032409;28;20386;-78
2021/12/18 11:35:17;;;;;;;9.00;4.18;;;;;;;6.42;100.00;104138.09;5026142;28;20037;-78
2021/12/18 11:37:49;;;;;;;9.10;4.63;;;;;;;6.37;100.00;104127.44;5028130;28;20033;-78
2021/12/18 11:40:25;;;;;;;15.57;3.58;;;;;;;6.41;100.00;104123.16;5025049;28;20497;-79
2021/12/18 11:42:51;;;;;;;8.30;3.67;;;;;;;6.18;100.00;104133.09;5023675;28;20017;-79
2021/12/18 11:45:16;;;;;;;9.77;3.60;;;;;;;6.11;100.00;104126.75;5031301;28;20392;-79
2021/12/18 11:47:44;;;;;;;9.10;3.58;;;;;;;6.05;100.00;104121.34;5028130;28;20038;-78
2021/12/18 11:50:09;;;;;;;8.82;4.10;;;;;;;6.03;100.00;104121.28;5029156;28;20053;-74
2021/12/18 11:52:53;;;;;;;10.20;4.15;;;;;;;6.07;100.00;104119.63;5036146;28;20057;-77
2021/12/18 11:55:19;;;;;;;9.85;4.50;;;;;;;6.14;100.00;104115.41;5035896;28;20112;-77
2021/12/18 11:57:51;;;;;;;9.85;4.57;;;;;;;6.14;100.00;104111.06;5035397;28;20126;-78
2021/12/18 12:00:19;;;;;;;11.15;4.53;;;;;;;6.22;100.00;104104.25;5018833;28;20026;-78